Time;durP1;ratioP1;P1;durP2;ratioP2;P2;SDS_P1;SDS_P2;PMS_P1;PMS_P2;Temp;Humidity;BMP_temperature;BMP_pressure;BME280_temperature;BME280_humidity;BME280_pressure;Samples;Min_cycle;Max_cycle;Signal;HPM_P1;HPM_P2
2022/01/09 00:02:22;;;;;;;;;;;22.90;26.00;;;;;;5118650;28;20431;-51
2022/01/09 00:04:48;;;;;;;;;;;22.90;26.00;;;;;;5123514;28;20036;-57
2022/01/09 00:07:14;;;;;;;;;;;23.00;26.10;;;;;;5123464;28;19927;-54
2022/01/09 00:09:42;;;;;;;;;;;23.00;26.10;;;;;;5120707;28;20156;-50
2022/01/09 00:12:08;;;;;;;;;;;23.10;26.10;;;;;;5125673;28;19983;-50
2022/01/09 00:14:34;;;;;;;;;;;23.00;26.10;;;;;;5120783;28;19985;-49
2022/01/09 00:17:00;;;;;;;;;;;23.00;26.20;;;;;;5120576;28;19930;-48
2022/01/09 00:19:26;;;;;;;;;;;23.10;26.30;;;;;;5106982;28;19930;-50
2022/01/09 00:21:52;;;;;;;;;;;23.10;26.20;;;;;;5118850;28;19974;-48
2022/01/09 00:24:17;;;;;;;;;;;23.20;26.20;;;;;;5120668;28;20386;-50
2022/01/09 00:26:43;;;;;;;;;;;23.30;26.20;;;;;;5124938;27;19930;-50
2022/01/09 00:29:10;;;;;;;;;;;23.20;26.30;;;;;;5120530;28;20328;-52
2022/01/09 00:31:41;;;;;;;;;;;22.90;26.90;;;;;;5125880;28;20042;-52
2022/01/09 00:34:07;;;;;;;;;;;23.00;26.90;;;;;;5120396;28;19923;-51
2022/01/09 00:36:33;;;;;;;;;;;23.10;26.80;;;;;;5120545;28;19954;-52
2022/01/09 00:38:59;;;;;;;;;;;23.10;26.80;;;;;;5123278;28;20282;-48
2022/01/09 00:41:24;;;;;;;;;;;23.00;26.90;;;;;;5120405;28;19927;-49
2022/01/09 00:43:50;;;;;;;;;;;23.20;26.90;;;;;;5120110;28;20259;-59
2022/01/09 00:46:17;;;;;;;;;;;23.20;26.90;;;;;;5125786;28;20014;-49
2022/01/09 00:48:42;;;;;;;;;;;23.10;27.00;;;;;;5120147;28;19931;-55
2022/01/09 00:51:08;;;;;;;;;;;23.10;27.00;;;;;;5125683;28;20529;-50
2022/01/09 00:53:34;;;;;;;;;;;23.10;27.00;;;;;;5120272;28;19924;-50
2022/01/09 00:56:00;;;;;;;;;;;23.20;27.00;;;;;;5101453;28;19923;-52
2022/01/09 00:58:25;;;;;;;;;;;23.20;27.00;;;;;;5123624;28;20389;-53
2022/01/09 01:00:52;;;;;;;;;;;23.10;27.00;;;;;;5120200;28;20453;-50
2022/01/09 01:03:19;;;;;;;;;;;23.20;27.00;;;;;;5120189;28;19987;-48
2022/01/09 01:05:44;;;;;;;;;;;23.10;27.10;;;;;;5125099;28;19927;-51
2022/01/09 01:08:10;;;;;;;;;;;22.80;27.50;;;;;;5120117;28;19952;-55
2022/01/09 01:10:36;;;;;;;;;;;22.90;27.50;;;;;;5123507;28;19991;-54
2022/01/09 01:13:02;;;;;;;;;;;22.90;27.50;;;;;;5122467;28;19931;-53
2022/01/09 01:15:28;;;;;;;;;;;23.00;27.40;;;;;;5117717;28;19944;-51
2022/01/09 01:17:54;;;;;;;;;;;23.00;27.40;;;;;;5105491;28;20006;-49
2022/01/09 01:20:22;;;;;;;;;;;23.10;27.30;;;;;;5120053;28;20382;-53
2022/01/09 01:22:49;;;;;;;;;;;23.00;27.40;;;;;;5119510;28;20290;-50
2022/01/09 01:25:16;;;;;;;;;;;23.00;27.40;;;;;;5125217;28;20010;-50
2022/01/09 01:27:42;;;;;;;;;;;23.10;27.40;;;;;;5119662;28;19976;-51
2022/01/09 01:30:08;;;;;;;;;;;23.10;27.40;;;;;;5100050;28;19924;-49
2022/01/09 01:32:34;;;;;;;;;;;23.00;27.50;;;;;;5125016;28;19937;-48
2022/01/09 01:34:59;;;;;;;;;;;23.00;27.40;;;;;;5117357;28;20378;-51
2022/01/09 01:37:25;;;;;;;;;;;23.10;27.40;;;;;;5126205;27;19927;-48
2022/01/09 01:39:51;;;;;;;;;;;23.20;27.20;;;;;;5122757;28;20267;-53
2022/01/09 01:42:17;;;;;;;;;;;23.10;27.30;;;;;;5122975;28;19931;-48
2022/01/09 01:44:44;;;;;;;;;;;23.00;27.40;;;;;;5108891;28;20389;-55
2022/01/09 01:47:10;;;;;;;;;;;23.10;27.40;;;;;;5123435;28;19923;-51
2022/01/09 01:49:35;;;;;;;;;;;23.10;27.50;;;;;;5123042;28;20277;-55
2022/01/09 01:52:01;;;;;;;;;;;23.20;27.40;;;;;;5126451;28;20274;-50
2022/01/09 01:54:27;;;;;;;;;;;23.00;27.50;;;;;;5122928;28;19931;-51
2022/01/09 01:56:53;;;;;;;;;;;23.00;27.60;;;;;;5128505;28;19933;-50
2022/01/09 01:59:19;;;;;;;;;;;23.10;27.50;;;;;;5123009;28;19923;-50
2022/01/09 02:01:45;;;;;;;;;;;23.10;27.50;;;;;;5122666;28;19923;-49
2022/01/09 02:04:10;;;;;;;;;;;23.20;27.40;;;;;;5128342;28;19968;-50
2022/01/09 02:06:36;;;;;;;;;;;23.20;27.30;;;;;;5122926;28;19930;-50
2022/01/09 02:09:05;;;;;;;;;;;23.20;27.30;;;;;;5122815;28;19946;-53
2022/01/09 02:11:31;;;;;;;;;;;22.80;27.90;;;;;;5125834;28;19923;-52
2022/01/09 02:13:57;;;;;;;;;;;22.90;27.80;;;;;;5122941;28;19924;-55
2022/01/09 02:16:23;;;;;;;;;;;22.90;27.60;;;;;;5126349;28;19929;-58
2022/01/09 02:18:50;;;;;;;;;;;22.90;27.60;;;;;;5124510;28;19923;-49
2022/01/09 02:21:16;;;;;;;;;;;22.90;27.60;;;;;;5122434;28;20032;-49
2022/01/09 02:23:45;;;;;;;;;;;23.00;27.50;;;;;;5128030;28;19923;-48
2022/01/09 02:26:11;;;;;;;;;;;23.00;27.50;;;;;;5122592;28;19934;-52
2022/01/09 02:28:37;;;;;;;;;;;23.10;27.40;;;;;;5120700;28;19931;-57
2022/01/09 02:31:02;;;;;;;;;;;23.20;27.30;;;;;;5108806;28;19927;-48
2022/01/09 02:33:28;;;;;;;;;;;23.20;27.30;;;;;;5122553;28;20426;-49
2022/01/09 02:35:56;;;;;;;;;;;23.30;27.30;;;;;;5122367;28;19933;-56
2022/01/09 02:38:21;;;;;;;;;;;22.90;27.70;;;;;;5127476;28;19927;-50
2022/01/09 02:40:51;;;;;;;;;;;22.80;28.00;;;;;;5122154;28;19924;-56
2022/01/09 02:43:17;;;;;;;;;;;22.90;27.80;;;;;;5127672;28;19949;-53
2022/01/09 02:45:45;;;;;;;;;;;22.90;27.70;;;;;;5122437;28;19927;-50
2022/01/09 02:48:11;;;;;;;;;;;22.90;27.80;;;;;;5119758;27;20030;-52
2022/01/09 02:50:42;;;;;;;;;;;23.00;27.70;;;;;;5126968;28;19924;-49
2022/01/09 02:53:20;;;;;;;;;;;23.00;27.60;;;;;;5121681;28;19928;-52
2022/01/09 02:55:46;;;;;;;;;;;23.10;27.60;;;;;;5121944;28;19932;-49
2022/01/09 02:58:12;;;;;;;;;;;23.10;27.50;;;;;;5127230;28;19925;-50
2022/01/09 03:00:38;;;;;;;;;;;23.10;27.50;;;;;;5122063;28;20018;-56
2022/01/09 03:03:04;;;;;;;;;;;23.00;27.60;;;;;;5122334;28;19924;-50
2022/01/09 03:05:30;;;;;;;;;;;22.90;27.70;;;;;;5125563;28;20022;-52
2022/01/09 03:07:56;;;;;;;;;;;23.00;27.50;;;;;;5121259;28;19945;-50
2022/01/09 03:10:22;;;;;;;;;;;23.00;27.40;;;;;;5126882;28;19976;-50
2022/01/09 03:12:48;;;;;;;;;;;23.20;27.30;;;;;;5121420;28;19928;-51
2022/01/09 03:15:14;;;;;;;;;;;23.10;27.40;;;;;;5121555;28;19924;-50
2022/01/09 03:17:40;;;;;;;;;;;23.10;27.40;;;;;;5127366;28;20362;-50
2022/01/09 03:20:07;;;;;;;;;;;23.20;27.30;;;;;;5121758;28;19938;-52
2022/01/09 03:22:32;;;;;;;;;;;23.10;27.30;;;;;;5121572;28;19923;-52
2022/01/09 03:24:58;;;;;;;;;;;23.00;27.40;;;;;;5124823;28;19930;-49
2022/01/09 03:27:24;;;;;;;;;;;23.10;27.40;;;;;;5121198;28;19924;-53
2022/01/09 03:29:50;;;;;;;;;;;23.10;27.30;;;;;;5126944;28;20286;-51
2022/01/09 03:32:15;;;;;;;;;;;23.20;27.30;;;;;;5121311;28;19927;-49
2022/01/09 03:34:41;;;;;;;;;;;23.20;27.20;;;;;;5121070;28;19927;-49
2022/01/09 03:37:07;;;;;;;;;;;23.20;27.20;;;;;;5126818;28;19923;-51
2022/01/09 03:39:33;;;;;;;;;;;23.00;27.50;;;;;;5121240;28;19923;-53
2022/01/09 03:41:59;;;;;;;;;;;23.00;27.50;;;;;;5120360;28;20134;-55
2022/01/09 03:44:25;;;;;;;;;;;23.10;27.40;;;;;;5125622;28;20018;-50
2022/01/09 03:46:51;;;;;;;;;;;23.10;27.50;;;;;;5121158;28;19927;-49
2022/01/09 03:49:17;;;;;;;;;;;23.10;27.40;;;;;;5125720;28;19923;-55
2022/01/09 03:51:44;;;;;;;;;;;23.20;27.40;;;;;;5121843;28;20223;-57
2022/01/09 03:54:10;;;;;;;;;;;23.20;27.50;;;;;;5121246;28;20035;-51
2022/01/09 03:56:36;;;;;;;;;;;23.10;27.70;;;;;;5126523;28;19956;-52
2022/01/09 03:59:02;;;;;;;;;;;23.00;27.70;;;;;;5121071;28;19927;-52
2022/01/09 04:01:27;;;;;;;;;;;23.20;27.50;;;;;;5117657;27;19923;-49
2022/01/09 04:03:53;;;;;;;;;;;23.10;27.60;;;;;;5126425;28;19945;-50
2022/01/09 04:06:19;;;;;;;;;;;23.10;27.70;;;;;;5120880;28;19924;-53
2022/01/09 04:08:45;;;;;;;;;;;23.10;27.60;;;;;;5122717;28;19923;-60
2022/01/09 04:11:10;;;;;;;;;;;23.10;27.60;;;;;;5124387;28;20010;-50
2022/01/09 04:13:37;;;;;;;;;;;23.20;27.50;;;;;;5121041;28;19923;-55
2022/01/09 04:16:03;;;;;;;;;;;23.20;27.50;;;;;;5126021;28;19938;-51
2022/01/09 04:18:30;;;;;;;;;;;23.00;27.70;;;;;;5120502;28;20263;-55
2022/01/09 04:20:56;;;;;;;;;;;23.20;27.60;;;;;;5118894;28;20014;-55
2022/01/09 04:23:22;;;;;;;;;;;23.20;27.60;;;;;;5126162;28;20396;-50
2022/01/09 04:25:48;;;;;;;;;;;23.10;27.80;;;;;;5120631;28;20347;-52
2022/01/09 04:28:13;;;;;;;;;;;23.10;27.80;;;;;;5120392;28;19923;-49
2022/01/09 04:30:39;;;;;;;;;;;23.10;27.80;;;;;;5126149;28;20325;-46
2022/01/09 04:33:05;;;;;;;;;;;23.00;27.90;;;;;;5120540;28;19934;-51
2022/01/09 04:35:31;;;;;;;;;;;23.10;27.80;;;;;;5126220;28;20029;-49
2022/01/09 04:37:57;;;;;;;;;;;23.20;27.70;;;;;;5118488;28;19930;-50
2022/01/09 04:40:23;;;;;;;;;;;23.20;27.70;;;;;;5120281;28;20289;-51
2022/01/09 04:42:53;;;;;;;;;;;23.20;27.80;;;;;;5125624;28;19931;-50
2022/01/09 04:45:20;;;;;;;;;;;23.20;28.00;;;;;;5120298;28;20938;-52
2022/01/09 04:47:47;;;;;;;;;;;23.10;28.00;;;;;;5120005;28;20598;-50
2022/01/09 04:50:18;;;;;;;;;;;23.10;28.10;;;;;;5125657;28;19937;-53
2022/01/09 04:52:44;;;;;;;;;;;23.20;27.90;;;;;;5120363;28;20964;-50
2022/01/09 04:55:10;;;;;;;;;;;23.10;28.00;;;;;;5123455;28;19981;-58
2022/01/09 04:57:36;;;;;;;;;;;23.00;28.10;;;;;;5120814;28;20375;-50
2022/01/09 05:00:03;;;;;;;;;;;23.00;28.00;;;;;;5120252;28;19923;-51
2022/01/09 05:02:28;;;;;;;;;;;23.10;28.00;;;;;;5125428;28;19972;-61
2022/01/09 05:04:54;;;;;;;;;;;23.00;27.90;;;;;;5120051;28;19970;-57
2022/01/09 05:07:20;;;;;;;;;;;22.90;28.00;;;;;;5119961;28;19938;-51
2022/01/09 05:09:46;;;;;;;;;;;23.10;27.70;;;;;;5125504;28;19927;-54
2022/01/09 05:12:12;;;;;;;;;;;23.10;27.60;;;;;;5120768;27;19924;-52
2022/01/09 05:14:37;;;;;;;;;;;23.20;27.50;;;;;;5122565;28;19931;-58
2022/01/09 05:17:03;;;;;;;;;;;23.20;27.30;;;;;;5109920;28;19923;-52
2022/01/09 05:19:31;;;;;;;;;;;23.10;27.40;;;;;;5123608;28;20383;-50
2022/01/09 05:21:57;;;;;;;;;;;23.30;27.20;;;;;;5128977;28;19927;-55
2022/01/09 05:24:24;;;;;;;;;;;23.10;27.30;;;;;;5123511;28;20287;-53
2022/01/09 05:26:49;;;;;;;;;;;23.10;27.20;;;;;;5123317;28;20168;-53
2022/01/09 05:29:15;;;;;;;;;;;23.10;27.10;;;;;;5129003;28;19927;-50
2022/01/09 05:31:41;;;;;;;;;;;23.00;27.10;;;;;;5123431;28;20025;-49
2022/01/09 05:34:07;;;;;;;;;;;23.10;26.90;;;;;;5121034;28;19946;-50
2022/01/09 05:36:33;;;;;;;;;;;23.10;26.90;;;;;;5128836;28;19923;-52
2022/01/09 05:38:58;;;;;;;;;;;23.20;26.80;;;;;;5123274;28;19963;-50
2022/01/09 05:41:24;;;;;;;;;;;23.30;26.70;;;;;;5128482;28;19931;-58
2022/01/09 05:43:50;;;;;;;;;;;23.20;26.70;;;;;;5123182;28;19930;-52
2022/01/09 05:46:16;;;;;;;;;;;23.20;26.70;;;;;;5123484;28;19935;-56
2022/01/09 05:48:42;;;;;;;;;;;23.10;26.70;;;;;;5128385;28;20286;-52
2022/01/09 05:51:07;;;;;;;;;;;23.00;26.70;;;;;;5122471;28;19927;-56
2022/01/09 05:53:33;;;;;;;;;;;23.20;26.60;;;;;;5121659;28;20104;-51
2022/01/09 05:55:59;;;;;;;;;;;23.20;26.60;;;;;;5128407;28;20422;-61
2022/01/09 05:58:25;;;;;;;;;;;23.10;26.60;;;;;;5122744;28;19927;-53
2022/01/09 06:00:50;;;;;;;;;;;22.90;26.80;;;;;;5128062;28;19927;-50
2022/01/09 06:03:16;;;;;;;;;;;23.10;26.60;;;;;;5122959;28;19928;-48
2022/01/09 06:05:42;;;;;;;;;;;23.10;26.60;;;;;;5123236;28;19938;-55
2022/01/09 06:08:08;;;;;;;;;;;23.10;26.60;;;;;;5128369;28;20367;-49
2022/01/09 06:10:33;;;;;;;;;;;22.90;26.70;;;;;;5120531;28;19925;-54
2022/01/09 06:12:59;;;;;;;;;;;23.10;26.50;;;;;;5122650;28;19980;-53
2022/01/09 06:15:25;;;;;;;;;;;23.10;26.60;;;;;;5128080;28;19964;-52
2022/01/09 06:17:51;;;;;;;;;;;23.20;26.40;;;;;;5122448;28;19930;-50
2022/01/09 06:20:16;;;;;;;;;;;23.30;26.30;;;;;;5127343;28;19924;-53
2022/01/09 06:22:42;;;;;;;;;;;23.10;26.50;;;;;;5123427;28;19924;-49
2022/01/09 06:25:08;;;;;;;;;;;23.20;26.40;;;;;;5121285;27;19923;-52
2022/01/09 06:27:34;;;;;;;;;;;23.20;26.40;;;;;;5128142;28;19993;-53
2022/01/09 06:30:00;;;;;;;;;;;23.10;26.50;;;;;;5120616;28;20386;-49
2022/01/09 06:32:26;;;;;;;;;;;23.10;26.50;;;;;;5122484;28;19936;-58
2022/01/09 06:34:51;;;;;;;;;;;23.00;26.50;;;;;;5127763;28;19982;-55
2022/01/09 06:37:17;;;;;;;;;;;22.80;26.80;;;;;;5122259;28;20260;-50
2022/01/09 06:39:43;;;;;;;;;;;23.00;26.70;;;;;;5124891;28;20254;-54
2022/01/09 06:42:09;;;;;;;;;;;23.00;26.60;;;;;;5125497;28;19927;-52
2022/01/09 06:44:35;;;;;;;;;;;23.10;26.60;;;;;;5122375;28;19931;-51
2022/01/09 06:47:01;;;;;;;;;;;23.10;26.60;;;;;;5125940;28;19939;-52
2022/01/09 06:49:26;;;;;;;;;;;23.10;26.50;;;;;;5121576;28;19972;-49
2022/01/09 06:51:52;;;;;;;;;;;23.10;26.50;;;;;;5121803;28;20437;-51
2022/01/09 06:54:18;;;;;;;;;;;23.10;26.50;;;;;;5127636;28;19934;-51
2022/01/09 06:56:44;;;;;;;;;;;23.10;26.60;;;;;;5121781;28;19923;-51
2022/01/09 06:59:10;;;;;;;;;;;23.10;26.60;;;;;;5122797;28;19930;-53
2022/01/09 07:01:35;;;;;;;;;;;23.10;26.60;;;;;;5127006;28;19936;-49
2022/01/09 07:04:01;;;;;;;;;;;23.10;26.60;;;;;;5121982;28;19923;-53
2022/01/09 07:06:27;;;;;;;;;;;23.10;26.60;;;;;;5125099;28;19952;-51
2022/01/09 07:08:53;;;;;;;;;;;23.00;26.70;;;;;;5121799;28;19928;-51
2022/01/09 07:11:18;;;;;;;;;;;23.10;26.60;;;;;;5121771;28;19931;-51
2022/01/09 07:13:44;;;;;;;;;;;23.10;26.60;;;;;;5127228;28;19947;-49
2022/01/09 07:16:10;;;;;;;;;;;23.10;26.60;;;;;;5121562;28;19923;-47
2022/01/09 07:18:36;;;;;;;;;;;23.00;26.60;;;;;;5121804;28;19972;-51
2022/01/09 07:21:03;;;;;;;;;;;23.10;26.60;;;;;;5127112;28;19923;-48
2022/01/09 07:23:29;;;;;;;;;;;23.20;26.50;;;;;;5101348;28;19934;-53
2022/01/09 07:25:55;;;;;;;;;;;23.10;26.50;;;;;;5125343;28;19928;-54
2022/01/09 07:28:21;;;;;;;;;;;23.10;26.50;;;;;;5121459;28;19940;-51
2022/01/09 07:30:47;;;;;;;;;;;23.10;26.50;;;;;;5121318;28;20028;-52
2022/01/09 07:33:12;;;;;;;;;;;23.10;26.50;;;;;;5126640;28;19972;-50
2022/01/09 07:35:38;;;;;;;;;;;23.10;26.40;;;;;;5121017;27;19924;-50
2022/01/09 07:38:04;;;;;;;;;;;23.20;26.30;;;;;;5121605;28;19984;-49
2022/01/09 07:40:30;;;;;;;;;;;23.10;26.40;;;;;;5126976;28;20389;-49
2022/01/09 07:42:55;;;;;;;;;;;23.00;26.40;;;;;;5119123;28;19938;-50
2022/01/09 07:45:27;;;;;;;;;;;23.10;26.30;;;;;;5126954;28;20352;-53
2022/01/09 07:47:53;;;;;;;;;;;23.20;26.20;;;;;;5121735;28;20321;-49
2022/01/09 07:50:19;;;;;;;;;;;23.20;26.20;;;;;;5121048;28;20022;-51
2022/01/09 07:52:45;;;;;;;;;;;23.20;26.10;;;;;;5126295;28;19931;-60
2022/01/09 07:55:11;;;;;;;;;;;23.10;26.10;;;;;;5121260;28;19979;-50
2022/01/09 07:57:36;;;;;;;;;;;23.00;26.20;;;;;;5102049;28;20011;-49
2022/01/09 08:00:03;;;;;;;;;;;23.10;26.00;;;;;;5126491;28;20374;-49
2022/01/09 08:02:29;;;;;;;;;;;23.20;25.80;;;;;;5119181;28;19972;-51
2022/01/09 08:04:55;;;;;;;;;;;23.10;25.80;;;;;;5122823;28;19989;-56
2022/01/09 08:07:21;;;;;;;;;;;23.10;25.80;;;;;;5106208;28;19989;-51
2022/01/09 08:09:47;;;;;;;;;;;23.10;25.70;;;;;;5120785;28;19953;-52
2022/01/09 08:12:14;;;;;;;;;;;23.10;25.70;;;;;;5126065;28;19944;-57
2022/01/09 08:14:40;;;;;;;;;;;23.00;25.70;;;;;;5120909;28;20355;-51
2022/01/09 08:17:06;;;;;;;;;;;22.90;25.80;;;;;;5120876;28;19931;-52
2022/01/09 08:19:32;;;;;;;;;;;23.00;25.70;;;;;;5124336;28;19984;-52
2022/01/09 08:21:58;;;;;;;;;;;23.00;25.60;;;;;;5120529;28;19945;-49
2022/01/09 08:24:24;;;;;;;;;;;23.10;25.30;;;;;;5120593;28;19923;-50
2022/01/09 08:26:49;;;;;;;;;;;23.20;25.20;;;;;;5125921;28;19923;-50
2022/01/09 08:29:16;;;;;;;;;;;23.00;25.20;;;;;;5120415;28;19928;-49
2022/01/09 08:31:42;;;;;;;;;;;23.20;25.00;;;;;;5125931;28;20376;-51
2022/01/09 08:34:07;;;;;;;;;;;23.20;25.00;;;;;;5120760;28;19923;-53
2022/01/09 08:36:33;;;;;;;;;;;23.20;24.90;;;;;;5120796;28;19924;-50
2022/01/09 08:38:59;;;;;;;;;;;23.00;25.00;;;;;;5123870;28;19923;-48
2022/01/09 08:41:25;;;;;;;;;;;23.10;24.80;;;;;;5120451;28;19930;-48
2022/01/09 08:43:51;;;;;;;;;;;23.10;24.70;;;;;;5120412;28;20030;-55
2022/01/09 08:46:16;;;;;;;;;;;23.20;24.60;;;;;;5126055;27;20439;-50
2022/01/09 08:48:42;;;;;;;;;;;23.10;24.60;;;;;;5126555;27;19943;-52
2022/01/09 08:51:08;;;;;;;;;;;23.00;24.60;;;;;;5132883;27;19925;-49
2022/01/09 08:53:35;;;;;;;;;;;23.10;24.50;;;;;;5127453;27;19939;-58
2022/01/09 08:56:02;;;;;;;;;;;23.00;24.60;;;;;;5108233;27;20298;-53
2022/01/09 08:58:28;;;;;;;;;;;23.10;24.40;;;;;;5131463;27;20401;-49
2022/01/09 09:00:54;;;;;;;;;;;23.00;24.50;;;;;;5127121;27;20426;-52
2022/01/09 09:03:20;;;;;;;;;;;23.10;24.30;;;;;;5127192;27;19924;-49
2022/01/09 09:05:46;;;;;;;;;;;23.20;24.20;;;;;;5132306;27;19930;-50
2022/01/09 09:08:11;;;;;;;;;;;23.10;24.30;;;;;;5126856;27;20405;-49
2022/01/09 09:10:37;;;;;;;;;;;23.20;24.10;;;;;;5132103;27;19927;-54
2022/01/09 09:13:03;;;;;;;;;;;23.30;23.90;;;;;;5127790;27;19935;-56
2022/01/09 09:15:29;;;;;;;;;;;23.10;24.00;;;;;;5125100;27;19929;-49
2022/01/09 09:17:55;;;;;;;;;;;23.10;24.10;;;;;;5132292;27;19938;-54
2022/01/09 09:20:21;;;;;;;;;;;23.20;24.00;;;;;;5126877;27;19963;-50
2022/01/09 09:22:47;;;;;;;;;;;23.10;24.10;;;;;;5126686;27;19923;-57
2022/01/09 09:25:13;;;;;;;;;;;23.10;24.30;;;;;;5113891;27;19968;-50
2022/01/09 09:27:39;;;;;;;;;;;23.20;24.30;;;;;;5126827;27;19927;-55
2022/01/09 09:30:05;;;;;;;;;;;23.20;24.30;;;;;;5129336;27;20390;-56
2022/01/09 09:32:31;;;;;;;;;;;23.10;24.30;;;;;;5129995;27;20399;-52
2022/01/09 09:34:57;;;;;;;;;;;23.00;24.50;;;;;;5124671;27;19962;-52
2022/01/09 09:37:23;;;;;;;;;;;23.10;24.50;;;;;;5132387;27;20311;-50
2022/01/09 09:39:51;;;;;;;;;;;23.20;24.40;;;;;;5126557;27;20038;-49
2022/01/09 09:42:17;;;;;;;;;;;23.20;24.50;;;;;;5126491;27;19927;-50
2022/01/09 09:44:43;;;;;;;;;;;23.10;24.60;;;;;;5131856;27;20011;-49
2022/01/09 09:47:08;;;;;;;;;;;23.10;24.70;;;;;;5126647;27;19923;-48
2022/01/09 09:49:34;;;;;;;;;;;23.20;24.80;;;;;;5126329;27;19931;-47
2022/01/09 09:52:00;;;;;;;;;;;23.10;25.00;;;;;;5129937;27;19970;-53
2022/01/09 09:54:26;;;;;;;;;;;23.20;25.10;;;;;;5126042;27;20568;-51
2022/01/09 09:56:52;;;;;;;;;;;23.20;25.10;;;;;;5131764;27;20060;-50
2022/01/09 09:59:24;;;;;;;;;;;23.30;25.10;;;;;;5123705;27;19923;-51
2022/01/09 10:01:50;;;;;;;;;;;23.10;25.40;;;;;;5122713;28;19930;-51
2022/01/09 10:04:16;;;;;;;;;;;23.00;25.50;;;;;;5128464;28;20010;-51
2022/01/09 10:06:42;;;;;;;;;;;23.10;25.50;;;;;;5122847;28;19930;-60
2022/01/09 10:09:10;;;;;;;;;;;23.10;25.50;;;;;;5122918;28;20046;-50
2022/01/09 10:11:46;;;;;;;;;;;22.80;25.90;;;;;;5125856;28;19923;-51
2022/01/09 10:14:12;;;;;;;;;;;23.00;25.60;;;;;;5122772;28;19968;-51
2022/01/09 10:16:38;;;;;;;;;;;22.90;25.60;;;;;;5122661;28;19929;-53
2022/01/09 10:19:04;;;;;;;;;;;23.00;25.60;;;;;;5128003;28;20378;-54
2022/01/09 10:21:30;;;;;;;;;;;23.10;25.50;;;;;;5122509;28;20391;-49
2022/01/09 10:23:56;;;;;;;;;;;23.20;25.40;;;;;;5128388;28;19939;-51
2022/01/09 10:26:22;;;;;;;;;;;23.20;25.50;;;;;;5122457;28;19960;-51
2022/01/09 10:28:48;;;;;;;;;;;23.10;25.70;;;;;;5121309;28;19923;-49
2022/01/09 10:31:15;;;;;;;;;;;23.20;25.60;;;;;;5126743;28;19972;-49
2022/01/09 10:33:41;;;;;;;;;;;23.10;25.70;;;;;;5122570;28;20283;-52
2022/01/09 10:36:09;;;;;;;;;;;23.10;25.70;;;;;;5103802;28;20976;-51
2022/01/09 10:38:34;;;;;;;;;;;23.10;25.70;;;;;;5108046;28;19927;-48
2022/01/09 10:41:03;;;;;;;;;;;23.10;25.70;;;;;;5122258;28;19935;-49
2022/01/09 10:43:32;;;;;;;;;;;23.10;25.80;;;;;;5123683;28;19927;-53
2022/01/09 10:45:59;;;;;;;;;;;23.00;26.10;;;;;;5123112;28;19967;-49
2022/01/09 10:48:43;;;;;;;;;;;23.20;25.80;;;;;;5120135;28;20621;-56
2022/01/09 10:51:11;;;;;;;;;;;23.20;25.80;;;;;;5127629;28;19953;-53
2022/01/09 10:53:37;;;;;;;;;;;23.20;25.90;;;;;;5103696;28;19996;-51
2022/01/09 10:56:18;;;;;;;;;;;23.10;26.00;;;;;;5122080;28;20000;-51
2022/01/09 10:58:46;;;;;;;;;;;23.20;25.90;;;;;;5127506;28;20421;-51
2022/01/09 11:01:25;;;;;;;;;;;23.00;26.20;;;;;;5122068;28;19924;-51
2022/01/09 11:03:51;;;;;;;;;;;22.90;26.40;;;;;;5121821;28;20363;-51
2022/01/09 11:06:17;;;;;;;;;;;23.10;26.20;;;;;;5125643;28;19928;-52
2022/01/09 11:08:43;;;;;;;;;;;23.20;26.10;;;;;;5121990;28;20018;-51
2022/01/09 11:11:23;;;;;;;;;;;23.10;26.20;;;;;;5121373;27;20379;-54
2022/01/09 11:13:50;;;;;;;;;;;23.10;26.10;;;;;;5109008;28;20005;-51
2022/01/09 11:16:40;;;;;;;;;;;23.20;26.10;;;;;;5121494;28;19927;-53
2022/01/09 11:19:10;;;;;;;;;;;23.00;26.10;;;;;;5122110;28;19931;-50
2022/01/09 11:21:37;;;;;;;;;;;23.00;26.30;;;;;;5127300;28;19923;-57
2022/01/09 11:24:06;;;;;;;;;;;23.10;26.20;;;;;;5117562;28;19923;-54
2022/01/09 11:26:47;;;;;;;;;;;23.00;26.20;;;;;;5120009;28;20185;-49
2022/01/09 11:29:14;;;;;;;;;;;23.20;26.10;;;;;;5108076;28;20343;-50
2022/01/09 11:31:49;;;;;;;;;;;23.20;26.00;;;;;;5121140;28;20367;-54
2022/01/09 11:34:27;;;;;;;;;;;23.20;25.90;;;;;;5121208;28;20106;-49
2022/01/09 11:36:53;;;;;;;;;;;23.20;25.90;;;;;;5126918;28;20286;-52
2022/01/09 11:39:19;;;;;;;;;;;23.20;25.80;;;;;;5121411;28;19974;-52
2022/01/09 11:41:45;;;;;;;;;;;23.20;25.90;;;;;;5104417;28;19927;-56
2022/01/09 11:44:12;;;;;;;;;;;23.10;25.80;;;;;;5123504;28;20281;-48
2022/01/09 11:46:57;;;;;;;;;;;23.10;25.80;;;;;;5121291;28;19975;-50
2022/01/09 11:49:23;;;;;;;;;;;23.20;25.80;;;;;;5125628;28;19923;-55
2022/01/09 11:51:53;;;;;;;;;;;23.20;25.80;;;;;;5122833;28;20039;-53
2022/01/09 11:54:20;;;;;;;;;;;23.30;25.70;;;;;;5121108;28;19927;-52
2022/01/09 11:56:47;;;;;;;;;;;23.20;25.70;;;;;;5108560;28;19927;-49
2022/01/09 11:59:17;;;;;;;;;;;23.10;25.80;;;;;;5121174;28;20302;-51
2022/01/09 12:01:44;;;;;;;;;;;23.10;25.70;;;;;;5119296;28;20305;-51
2022/01/09 12:04:28;;;;;;;;;;;23.20;25.60;;;;;;5126162;28;19936;-50
2022/01/09 12:06:56;;;;;;;;;;;23.10;25.70;;;;;;5120944;28;20010;-55
2022/01/09 12:09:49;;;;;;;;;;;23.10;25.70;;;;;;5102863;28;19925;-54
2022/01/09 12:12:16;;;;;;;;;;;23.00;25.60;;;;;;5122097;28;19992;-54
2022/01/09 12:14:42;;;;;;;;;;;23.20;25.50;;;;;;5120933;28;19923;-49
2022/01/09 12:17:23;;;;;;;;;;;23.10;25.60;;;;;;5121028;28;19965;-61
2022/01/09 12:20:08;;;;;;;;;;;23.00;25.80;;;;;;5125565;28;19945;-52
2022/01/09 12:22:47;;;;;;;;;;;23.00;25.80;;;;;;5119056;27;19923;-52
2022/01/09 12:25:22;;;;;;;;;;;23.10;25.60;;;;;;5120509;28;19927;-50
2022/01/09 12:27:54;;;;;;;;;;;23.10;25.60;;;;;;5126007;28;19979;-54
2022/01/09 12:30:33;;;;;;;;;;;23.00;25.70;;;;;;5120425;28;19934;-49
2022/01/09 12:32:59;;;;;;;;;;;23.20;25.40;;;;;;5120496;28;19950;-49
2022/01/09 12:35:25;;;;;;;;;;;23.20;25.30;;;;;;5105940;28;19928;-55
2022/01/09 12:38:01;;;;;;;;;;;23.20;25.40;;;;;;5120522;28;19927;-52
2022/01/09 12:40:30;;;;;;;;;;;23.00;25.50;;;;;;5118686;28;19934;-50
2022/01/09 12:42:56;;;;;;;;;;;23.10;25.50;;;;;;5126102;28;20017;-50
2022/01/09 12:45:23;;;;;;;;;;;23.00;25.70;;;;;;5120034;28;19930;-50
2022/01/09 12:47:49;;;;;;;;;;;23.10;25.60;;;;;;5120248;28;20192;-52
2022/01/09 12:50:16;;;;;;;;;;;23.10;25.40;;;;;;5124922;28;21309;-50
2022/01/09 12:52:42;;;;;;;;;;;23.10;25.30;;;;;;5120498;28;20282;-51
2022/01/09 12:55:09;;;;;;;;;;;23.20;25.30;;;;;;5126007;28;19933;-64
2022/01/09 12:57:51;;;;;;;;;;;23.10;25.30;;;;;;5119348;28;19923;-50
2022/01/09 13:00:23;;;;;;;;;;;22.80;25.70;;;;;;5119928;28;19927;-50
2022/01/09 13:02:52;;;;;;;;;;;23.00;25.50;;;;;;5125344;28;19995;-52
2022/01/09 13:05:25;;;;;;;;;;;23.10;25.30;;;;;;5119833;28;20328;-56
2022/01/09 13:07:57;;;;;;;;;;;23.20;25.20;;;;;;5119901;28;20390;-48
2022/01/09 13:10:33;;;;;;;;;;;23.10;25.20;;;;;;5125910;28;19923;-49
2022/01/09 13:13:08;;;;;;;;;;;23.00;25.20;;;;;;5119959;28;19924;-48
2022/01/09 13:15:34;;;;;;;;;;;23.10;25.20;;;;;;5119011;28;19959;-55
2022/01/09 13:18:00;;;;;;;;;;;23.20;25.10;;;;;;5124907;28;19992;-62
2022/01/09 13:20:26;;;;;;;;;;;23.20;25.10;;;;;;5120074;28;19947;-55
2022/01/09 13:23:04;;;;;;;;;;;23.00;25.40;;;;;;5119867;28;20293;-53
2022/01/09 13:25:40;;;;;;;;;;;23.10;25.30;;;;;;5125087;28;19998;-51
2022/01/09 13:28:05;;;;;;;;;;;23.20;25.30;;;;;;5119975;28;20029;-51
2022/01/09 13:30:31;;;;;;;;;;;23.10;25.30;;;;;;5120064;28;20206;-49
2022/01/09 13:33:02;;;;;;;;;;;23.00;25.40;;;;;;5125695;27;19976;-55
2022/01/09 13:35:27;;;;;;;;;;;23.00;25.40;;;;;;5121482;28;19930;-52
2022/01/09 13:37:57;;;;;;;;;;;23.10;25.40;;;;;;5125287;28;19923;-58
2022/01/09 13:40:22;;;;;;;;;;;23.10;25.40;;;;;;5128448;28;19992;-50
2022/01/09 13:42:48;;;;;;;;;;;23.00;25.40;;;;;;5103497;28;20025;-51
2022/01/09 13:45:17;;;;;;;;;;;23.10;25.40;;;;;;5110034;28;19931;-52
2022/01/09 13:47:44;;;;;;;;;;;23.20;25.20;;;;;;5105255;28;19927;-47
2022/01/09 13:50:11;;;;;;;;;;;23.10;25.30;;;;;;5123253;28;19923;-48
2022/01/09 13:52:37;;;;;;;;;;;23.10;25.30;;;;;;5127405;28;19923;-52
2022/01/09 13:55:10;;;;;;;;;;;23.10;25.20;;;;;;5122208;28;20400;-50
2022/01/09 13:57:46;;;;;;;;;;;23.20;25.20;;;;;;5123402;28;20213;-49
2022/01/09 14:00:12;;;;;;;;;;;23.20;25.30;;;;;;5128308;28;19978;-50
2022/01/09 14:02:40;;;;;;;;;;;23.10;25.30;;;;;;5122879;28;19927;-49
2022/01/09 14:05:16;;;;;;;;;;;23.20;25.20;;;;;;5122944;28;19992;-50
2022/01/09 14:07:46;;;;;;;;;;;23.10;25.30;;;;;;5128243;28;19931;-49
2022/01/09 14:10:11;;;;;;;;;;;23.10;25.30;;;;;;5122806;28;19935;-49
2022/01/09 14:12:38;;;;;;;;;;;23.00;25.50;;;;;;5125525;28;19927;-58
2022/01/09 14:15:30;;;;;;;;;;;23.20;25.30;;;;;;5124141;28;19935;-49
2022/01/09 14:17:55;;;;;;;;;;;23.20;25.30;;;;;;5117910;28;19935;-50